Terminal Aerodrome Forecast
Issued by NWS Grand Forks, ND

Home | Current Version | Previous Version | Graphics & Text | Print | Product List | Glossary On
Versions: 1 2 3 4 5 6 7 8 9 10 11 12 13 14
000
FTUS43 KFGF 162126 AAA
TAFGFK
TAF AMD
KGFK 162126Z 1621/1718 27014G23KT P6SM FEW250
     FM162300 26013KT P6SM SKC
     FM170100 27006KT P6SM SKC
     FM171500 20009KT P6SM SKC=

USA.gov is the U.S. government's official web portal to all federal, state and local government web resources and services.